Time;durP1;ratioP1;P1;durP2;ratioP2;P2;SDS_P1;SDS_P2;PMS_P1;PMS_P2;Temp;Humidity;BMP_temperature;BMP_pressure;BME280_temperature;BME280_humidity;BME280_pressure;Samples;Min_cycle;Max_cycle;Signal;HPM_P1;HPM_P2
2023/03/21 00:00:43;;;;;;;9.63;8.52;;;8.60;99.90;;;;;;4952282;28;20089;-88
2023/03/21 00:03:09;;;;;;;8.93;8.02;;;8.50;99.90;;;;;;4952404;28;20027;-89
2023/03/21 00:05:39;;;;;;;8.82;7.90;;;8.50;99.90;;;;;;4952345;28;20106;-90
2023/03/21 00:08:05;;;;;;;8.07;7.28;;;8.80;99.90;;;;;;4952423;28;20040;-89
2023/03/21 00:10:30;;;;;;;8.98;7.88;;;9.10;99.90;;;;;;4951650;28;20082;-89
2023/03/21 00:12:57;;;;;;;10.80;8.02;;;8.70;99.90;;;;;;4952283;28;20028;-89
2023/03/21 00:15:25;;;;;;;11.27;8.50;;;8.50;99.90;;;;;;4952454;28;20027;-89
2023/03/21 00:17:57;;;;;;;10.15;8.40;;;8.60;99.90;;;;;;4952466;28;20042;-89
2023/03/21 00:20:22;;;;;;;10.60;8.23;;;8.30;99.90;;;;;;4952105;28;20031;-89
2023/03/21 00:22:48;;;;;;;8.65;7.72;;;8.40;99.90;;;;;;4952165;28;20459;-88
2023/03/21 00:25:14;;;;;;;11.38;8.23;;;8.40;99.90;;;;;;4948676;28;20061;-89
2023/03/21 00:27:39;;;;;;;8.57;7.65;;;8.60;99.90;;;;;;4932767;29;20568;-89
2023/03/21 00:30:05;;;;;;;10.48;7.88;;;8.70;99.90;;;;;;4932880;29;20028;-88
2023/03/21 00:32:31;;;;;;;11.57;8.15;;;8.60;99.90;;;;;;4931626;29;20131;-89
2023/03/21 00:34:57;;;;;;;9.25;8.23;;;8.70;99.90;;;;;;4932808;29;20461;-89
2023/03/21 00:37:22;;;;;;;10.27;7.55;;;8.80;99.90;;;;;;4932797;29;20414;-89
2023/03/21 00:39:48;;;;;;;9.35;7.88;;;8.80;99.90;;;;;;4932050;29;20441;-89
2023/03/21 00:42:15;;;;;;;11.80;8.15;;;8.60;99.90;;;;;;4932637;29;20032;-89
2023/03/21 00:44:41;;;;;;;9.48;8.10;;;8.40;99.90;;;;;;4936985;29;20077;-89
2023/03/21 00:47:09;;;;;;;12.80;8.88;;;8.50;99.90;;;;;;4952105;28;20460;-88
2023/03/21 00:49:37;;;;;;;9.77;8.75;;;8.40;99.90;;;;;;4950348;29;20030;-88
2023/03/21 00:52:05;;;;;;;11.15;8.52;;;8.40;99.90;;;;;;4950449;28;20421;-89
2023/03/21 00:54:32;;;;;;;9.30;8.30;;;8.50;99.90;;;;;;4951249;28;20035;-89
2023/03/21 00:56:58;;;;;;;12.43;8.55;;;8.50;99.90;;;;;;4951910;28;20028;-89
2023/03/21 00:59:24;;;;;;;13.55;9.90;;;8.60;99.90;;;;;;4951541;28;20031;-89
2023/03/21 01:01:52;;;;;;;10.82;9.05;;;8.60;99.90;;;;;;4951612;28;20466;-88
2023/03/21 01:04:19;;;;;;;12.02;9.38;;;8.50;99.90;;;;;;4951783;28;20031;-89
2023/03/21 01:06:46;;;;;;;12.10;8.40;;;8.60;99.90;;;;;;4951505;28;20027;-88
2023/03/21 01:09:18;;;;;;;12.00;9.02;;;8.30;99.90;;;;;;4951065;28;20520;-89
2023/03/21 01:11:44;;;;;;;12.55;8.60;;;8.20;99.90;;;;;;4951372;28;20023;-88
2023/03/21 01:14:10;;;;;;;11.35;9.50;;;8.10;99.90;;;;;;4950286;29;20504;-89
2023/03/21 01:16:36;;;;;;;11.55;9.07;;;8.00;99.90;;;;;;4952054;28;20392;-88
2023/03/21 01:19:03;;;;;;;10.02;8.25;;;8.00;99.90;;;;;;4950165;28;20031;-88
2023/03/21 01:21:30;;;;;;;10.27;8.35;;;7.80;99.90;;;;;;4950129;28;20504;-89
2023/03/21 01:23:56;;;;;;;12.50;8.75;;;7.80;99.90;;;;;;4949708;28;20037;-89
2023/03/21 01:26:21;;;;;;;11.02;8.98;;;7.80;99.90;;;;;;4938903;28;20135;-88
2023/03/21 01:28:47;;;;;;;11.45;8.68;;;7.90;99.90;;;;;;4932214;29;20058;-89
2023/03/21 01:31:15;;;;;;;10.45;7.85;;;8.00;99.90;;;;;;4931149;29;20066;-89
2023/03/21 01:33:41;;;;;;;8.30;7.50;;;7.70;99.90;;;;;;4932102;29;20535;-89
2023/03/21 01:36:12;;;;;;;10.68;8.30;;;7.60;99.90;;;;;;4931993;29;20415;-88
2023/03/21 01:38:38;;;;;;;11.60;8.70;;;7.30;99.90;;;;;;4931981;29;20557;-88
2023/03/21 01:41:03;;;;;;;10.50;8.48;;;7.20;99.90;;;;;;4930825;29;20124;-88
2023/03/21 01:43:35;;;;;;;10.90;8.73;;;7.20;99.90;;;;;;4932064;29;20034;-88
2023/03/21 01:46:20;;;;;;;9.30;8.30;;;7.30;99.90;;;;;;4946794;29;20093;-88
2023/03/21 01:48:50;;;;;;;9.85;8.18;;;7.30;99.90;;;;;;4950892;28;20035;-88
2023/03/21 01:51:17;;;;;;;10.73;8.43;;;7.40;99.90;;;;;;4950714;28;20063;-88
2023/03/21 01:53:44;;;;;;;13.73;8.57;;;7.50;99.90;;;;;;4954424;28;20035;-89
2023/03/21 01:56:18;;;;;;;11.38;8.48;;;7.50;99.90;;;;;;4954378;28;20031;-89
2023/03/21 01:58:45;;;;;;;9.80;8.07;;;7.50;99.90;;;;;;4953072;29;20089;-89
2023/03/21 02:01:11;;;;;;;11.30;9.30;;;7.50;99.90;;;;;;4953910;28;20122;-89
2023/03/21 02:03:48;;;;;;;8.68;7.72;;;7.50;99.90;;;;;;4953771;28;20111;-89
2023/03/21 02:06:29;;;;;;;10.52;7.63;;;7.60;99.90;;;;;;4953654;28;20478;-88
2023/03/21 02:08:57;;;;;;;10.52;8.05;;;7.60;99.90;;;;;;4954011;28;20039;-89
2023/03/21 02:11:23;;;;;;;8.52;7.63;;;7.50;99.90;;;;;;4953925;28;20023;-88
2023/03/21 02:13:48;;;;;;;9.68;7.63;;;7.70;99.90;;;;;;4953906;28;20569;-89
2023/03/21 02:17:05;;;;;;;9.95;7.90;;;7.60;99.90;;;;;;4953920;28;20024;-89
2023/03/21 02:20:10;;;;;;;10.40;8.10;;;7.80;99.90;;;;;;4951394;29;20042;-89
2023/03/21 02:22:57;;;;;;;10.15;8.20;;;7.70;99.90;;;;;;4951892;28;20149;-88
2023/03/21 02:25:25;;;;;;;10.48;8.63;;;7.60;99.90;;;;;;4951690;29;20421;-89
2023/03/21 02:28:06;;;;;;;9.63;8.13;;;7.50;99.90;;;;;;4951582;29;20046;-88
2023/03/21 02:30:50;;;;;;;9.35;8.25;;;7.50;99.90;;;;;;4951432;29;20045;-89
2023/03/21 02:33:53;;;;;;;11.32;8.05;;;7.60;99.90;;;;;;4951494;29;20027;-89
2023/03/21 02:36:30;;;;;;;10.35;8.25;;;7.50;99.90;;;;;;4950940;29;20036;-89
2023/03/21 02:39:13;;;;;;;9.68;7.82;;;7.50;99.90;;;;;;4951419;29;20027;-89
2023/03/21 02:41:53;;;;;;;9.70;7.75;;;7.70;99.90;;;;;;4951332;29;20059;-88
2023/03/21 02:44:52;;;;;;;8.07;6.72;;;7.80;99.90;;;;;;4951200;29;20027;-88
2023/03/21 02:47:39;;;;;;;8.90;7.07;;;7.30;99.90;;;;;;4951515;29;20046;-88
2023/03/21 02:50:30;;;;;;;8.95;7.13;;;7.00;99.90;;;;;;4934876;29;20118;-88
2023/03/21 02:52:57;;;;;;;8.60;7.10;;;7.30;99.90;;;;;;4951354;29;20366;-89
2023/03/21 02:55:29;;;;;;;8.52;6.90;;;7.20;99.90;;;;;;4941053;29;20525;-88
2023/03/21 02:57:56;;;;;;;9.27;7.90;;;7.00;99.90;;;;;;4934280;29;21174;-88
2023/03/21 03:00:29;;;;;;;9.27;7.68;;;7.20;99.90;;;;;;4932924;29;20063;-89
2023/03/21 03:02:55;;;;;;;9.43;8.43;;;7.10;99.90;;;;;;4933781;29;20517;-89
2023/03/21 03:05:24;;;;;;;10.07;8.00;;;7.20;99.90;;;;;;4934147;29;20059;-89
2023/03/21 03:07:59;;;;;;;13.15;8.38;;;7.20;99.90;;;;;;4933064;29;20050;-88
2023/03/21 03:10:31;;;;;;;11.48;8.35;;;7.20;99.90;;;;;;4932809;29;20445;-89
2023/03/21 03:13:09;;;;;;;11.55;8.70;;;7.20;99.90;;;;;;4933821;28;20508;-89
2023/03/21 03:15:54;;;;;;;10.45;8.10;;;7.20;99.90;;;;;;4934161;29;20039;-89
2023/03/21 03:18:24;;;;;;;10.32;8.20;;;7.40;99.90;;;;;;4933448;29;20028;-89
2023/03/21 03:21:00;;;;;;;10.60;8.68;;;7.30;99.90;;;;;;4933959;28;20077;-88
2023/03/21 03:23:43;;;;;;;10.38;8.40;;;7.40;99.90;;;;;;4933909;28;20127;-89
2023/03/21 03:26:56;;;;;;;9.20;8.18;;;7.40;99.90;;;;;;4933404;28;20048;-89
2023/03/21 03:29:24;;;;;;;11.02;8.35;;;7.20;99.90;;;;;;5031573;28;20072;-88
2023/03/21 03:32:08;;;;;;;8.73;7.60;;;7.10;99.90;;;;;;5031321;28;20191;-88
2023/03/21 03:34:40;;;;;;;9.77;7.80;;;7.30;99.90;;;;;;5031252;28;20217;-91
2023/03/21 03:37:09;;;;;;;9.40;8.23;;;7.30;99.90;;;;;;5031390;28;20128;-89
2023/03/21 03:40:01;;;;;;;9.35;7.95;;;7.20;99.90;;;;;;5031350;28;20114;-89
2023/03/21 03:42:39;;;;;;;10.13;8.38;;;7.10;99.90;;;;;;5023200;28;20029;-89
2023/03/21 03:45:06;;;;;;;11.00;8.57;;;7.20;99.90;;;;;;5031165;28;20033;-88
2023/03/21 03:47:49;;;;;;;8.73;7.82;;;7.30;99.90;;;;;;5031385;28;20040;-88
2023/03/21 03:50:43;;;;;;;8.95;7.25;;;7.30;99.90;;;;;;5031154;28;20083;-88
2023/03/21 03:53:15;;;;;;;9.10;7.50;;;7.40;99.90;;;;;;5014656;28;20128;-88
2023/03/21 03:55:41;;;;;;;8.93;7.93;;;7.40;99.90;;;;;;5031014;28;20026;-87
2023/03/21 03:58:07;;;;;;;9.43;7.72;;;7.50;99.90;;;;;;5031301;28;20079;-89
2023/03/21 04:00:34;;;;;;;7.85;7.05;;;7.30;99.90;;;;;;5014792;28;20021;-89
2023/03/21 04:03:00;;;;;;;9.05;8.15;;;7.00;99.90;;;;;;4982409;28;20420;-88
2023/03/21 04:05:26;;;;;;;9.00;7.60;;;6.60;99.90;;;;;;4933236;29;20035;-88
2023/03/21 04:07:53;;;;;;;10.30;8.30;;;6.60;99.90;;;;;;4932680;29;20040;-89
2023/03/21 04:10:20;;;;;;;9.63;8.63;;;6.80;99.90;;;;;;4933125;29;20039;-89
2023/03/21 04:12:46;;;;;;;9.85;8.85;;;6.90;99.90;;;;;;4932821;29;20038;-89
2023/03/21 04:15:12;;;;;;;11.73;8.55;;;7.00;99.90;;;;;;4930625;29;20028;-89
2023/03/21 04:17:38;;;;;;;9.10;7.90;;;7.10;99.90;;;;;;4932965;29;20036;-89
2023/03/21 04:20:06;;;;;;;11.05;8.35;;;7.10;99.90;;;;;;4932714;29;20020;-89
2023/03/21 04:22:33;;;;;;;9.30;7.93;;;7.20;99.90;;;;;;4932487;29;20036;-89
2023/03/21 04:25:00;;;;;;;9.68;7.80;;;7.10;99.90;;;;;;4932577;29;20517;-88
2023/03/21 04:27:27;;;;;;;8.65;7.38;;;7.20;99.90;;;;;;4932742;28;20039;-88
2023/03/21 04:29:52;;;;;;;8.32;7.45;;;7.20;99.90;;;;;;4932658;29;20368;-89
2023/03/21 04:32:18;;;;;;;8.20;7.30;;;7.10;99.90;;;;;;4932865;29;20043;-88
2023/03/21 04:34:52;;;;;;;8.90;7.72;;;6.80;99.90;;;;;;4932889;29;20031;-88
2023/03/21 04:37:22;;;;;;;9.70;7.72;;;6.70;99.90;;;;;;4932472;29;20040;-88
2023/03/21 04:39:49;;;;;;;9.98;7.32;;;6.60;99.90;;;;;;4932601;29;20036;-88
2023/03/21 04:42:19;;;;;;;9.95;7.40;;;6.70;99.90;;;;;;4932897;29;20482;-89
2023/03/21 04:44:46;;;;;;;10.13;7.57;;;7.00;99.90;;;;;;4936562;29;20497;-88
2023/03/21 04:47:14;;;;;;;9.30;7.55;;;7.20;99.90;;;;;;4951898;28;20043;-88
2023/03/21 04:49:40;;;;;;;9.32;7.80;;;7.20;99.90;;;;;;4951502;28;20550;-88
2023/03/21 04:52:06;;;;;;;10.13;8.15;;;7.10;99.90;;;;;;4951643;28;20059;-88
2023/03/21 04:54:32;;;;;;;10.38;8.18;;;7.10;99.90;;;;;;4951584;28;20062;-89
2023/03/21 04:56:58;;;;;;;9.35;8.18;;;7.10;99.90;;;;;;4951268;28;20028;-88
2023/03/21 04:59:24;;;;;;;11.35;7.82;;;7.00;99.90;;;;;;4951392;28;20031;-88
2023/03/21 05:01:50;;;;;;;9.90;8.00;;;7.10;99.90;;;;;;4951422;28;20058;-88
2023/03/21 05:04:16;;;;;;;8.40;7.45;;;7.20;99.90;;;;;;4951475;28;20046;-89
2023/03/21 05:06:44;;;;;;;8.63;7.65;;;6.90;99.90;;;;;;4951723;28;20477;-88
2023/03/21 05:09:10;;;;;;;11.18;8.18;;;7.00;99.90;;;;;;4951365;28;20031;-88
2023/03/21 05:11:38;;;;;;;9.82;7.70;;;6.90;99.90;;;;;;4951197;28;20111;-89
2023/03/21 05:14:05;;;;;;;7.97;7.18;;;6.90;99.90;;;;;;4951283;28;20115;-88
2023/03/21 05:16:33;;;;;;;10.68;7.18;;;7.00;99.90;;;;;;4951051;28;20030;-91
2023/03/21 05:19:03;;;;;;;10.23;7.32;;;7.00;99.90;;;;;;4951431;28;20114;-89
2023/03/21 05:21:40;;;;;;;8.07;7.00;;;6.90;99.90;;;;;;4949989;28;20023;-89
2023/03/21 05:24:13;;;;;;;10.68;7.40;;;7.00;99.90;;;;;;4951348;28;20062;-89
2023/03/21 05:26:41;;;;;;;7.97;6.80;;;7.00;99.90;;;;;;4940138;28;20052;-89
2023/03/21 05:29:07;;;;;;;8.80;7.28;;;7.00;99.90;;;;;;4934972;29;20504;-89
2023/03/21 05:31:32;;;;;;;8.10;7.13;;;7.10;99.90;;;;;;4935544;29;20063;-88
2023/03/21 05:33:58;;;;;;;8.07;7.03;;;7.10;99.90;;;;;;4935364;29;20054;-90
2023/03/21 05:36:24;;;;;;;9.48;7.88;;;7.00;99.90;;;;;;4935006;29;20474;-89
2023/03/21 05:38:50;;;;;;;10.32;7.20;;;6.60;99.90;;;;;;4935285;29;20036;-90
2023/03/21 05:41:16;;;;;;;9.07;7.03;;;6.40;99.90;;;;;;4934896;29;20032;-88
2023/03/21 05:43:42;;;;;;;7.70;6.90;;;6.30;99.90;;;;;;4934599;29;20024;-88
2023/03/21 05:46:09;;;;;;;9.63;7.38;;;6.30;99.90;;;;;;4950716;29;20039;-88
2023/03/21 05:48:35;;;;;;;10.07;7.05;;;6.20;99.90;;;;;;4954123;28;20118;-89
2023/03/21 05:51:01;;;;;;;7.70;6.68;;;6.40;99.90;;;;;;4954082;28;20438;-88
2023/03/21 05:53:27;;;;;;;8.85;6.22;;;5.90;99.90;;;;;;4954389;28;20024;-88
2023/03/21 05:55:52;;;;;;;9.50;6.60;;;5.70;99.90;;;;;;4953965;28;20121;-88
2023/03/21 05:58:18;;;;;;;9.00;6.95;;;5.70;99.90;;;;;;4953568;28;20107;-88
2023/03/21 06:00:44;;;;;;;10.02;7.50;;;5.80;99.90;;;;;;4954342;28;20396;-88
2023/03/21 06:03:09;;;;;;;10.45;7.78;;;5.80;99.90;;;;;;4954253;28;20031;-89
2023/03/21 06:05:35;;;;;;;11.10;7.47;;;6.00;99.90;;;;;;4953553;28;20040;-89
2023/03/21 06:08:01;;;;;;;10.40;7.88;;;6.40;99.90;;;;;;4952688;29;20042;-89
2023/03/21 06:10:27;;;;;;;9.27;7.65;;;6.40;99.90;;;;;;4953879;28;20038;-89
2023/03/21 06:12:53;;;;;;;10.00;7.32;;;6.50;99.90;;;;;;4953734;28;20035;-89
2023/03/21 06:15:19;;;;;;;11.27;7.28;;;6.80;99.90;;;;;;4953841;28;20027;-88
2023/03/21 06:17:44;;;;;;;10.90;8.15;;;6.70;99.90;;;;;;4952335;28;20038;-89
2023/03/21 06:20:10;;;;;;;10.82;9.00;;;6.80;99.90;;;;;;4953744;28;20478;-88
2023/03/21 06:22:36;;;;;;;11.00;8.13;;;6.90;99.90;;;;;;4953779;28;20019;-89
2023/03/21 06:25:06;;;;;;;9.65;8.35;;;6.80;99.90;;;;;;4952893;28;20058;-88
2023/03/21 06:27:32;;;;;;;9.73;7.90;;;6.80;99.90;;;;;;4934399;29;20040;-88
2023/03/21 06:29:58;;;;;;;9.50;7.22;;;6.90;99.90;;;;;;4934347;29;20506;-89
2023/03/21 06:32:24;;;;;;;12.88;7.78;;;7.00;99.90;;;;;;4934186;29;20054;-89
2023/03/21 06:34:50;;;;;;;8.80;6.93;;;7.10;99.90;;;;;;4934316;29;20394;-88
2023/03/21 06:37:16;;;;;;;8.57;6.60;;;7.00;99.90;;;;;;4933318;29;20028;-89
2023/03/21 06:39:42;;;;;;;7.57;6.88;;;7.20;99.90;;;;;;4934327;29;20035;-89
2023/03/21 06:42:08;;;;;;;7.47;6.60;;;7.50;99.90;;;;;;4934010;29;20024;-89
2023/03/21 06:44:33;;;;;;;8.75;6.60;;;7.60;99.90;;;;;;4937385;29;20405;-89
2023/03/21 06:46:59;;;;;;;7.78;6.63;;;7.70;99.90;;;;;;4953266;28;20489;-89
2023/03/21 06:49:26;;;;;;;8.25;6.55;;;7.90;99.90;;;;;;4953308;28;20476;-88
2023/03/21 06:51:52;;;;;;;9.40;7.32;;;8.00;99.90;;;;;;4953332;28;20382;-89
2023/03/21 06:54:18;;;;;;;9.55;7.15;;;8.10;99.90;;;;;;4953161;28;20085;-89
2023/03/21 06:56:44;;;;;;;9.23;6.10;;;8.00;99.90;;;;;;4952956;28;20030;-89
2023/03/21 06:59:10;;;;;;;10.52;6.68;;;7.90;99.90;;;;;;4953475;28;20037;-88
2023/03/21 07:01:36;;;;;;;8.48;6.22;;;8.00;99.90;;;;;;4953001;28;20024;-89
2023/03/21 07:04:03;;;;;;;9.48;6.13;;;8.00;99.90;;;;;;4952587;28;20039;-89
2023/03/21 07:06:29;;;;;;;10.15;6.63;;;8.00;99.90;;;;;;4952955;28;20023;-88
2023/03/21 07:08:55;;;;;;;7.07;6.10;;;8.10;99.90;;;;;;4952976;28;20066;-89
2023/03/21 07:11:22;;;;;;;7.75;6.22;;;8.20;99.90;;;;;;4952406;28;20076;-89
2023/03/21 07:13:48;;;;;;;7.70;6.55;;;8.40;99.90;;;;;;4952865;28;20504;-88
2023/03/21 07:16:15;;;;;;;8.68;6.30;;;8.50;99.90;;;;;;4953280;28;20027;-89
2023/03/21 07:18:42;;;;;;;7.28;6.25;;;8.60;99.90;;;;;;4952977;28;20027;-89
2023/03/21 07:21:08;;;;;;;7.60;5.70;;;8.70;99.90;;;;;;4951456;28;20468;-90
2023/03/21 07:23:33;;;;;;;8.82;5.88;;;8.90;99.90;;;;;;4952653;28;20126;-89
2023/03/21 07:26:00;;;;;;;6.95;6.10;;;9.10;99.90;;;;;;4944284;28;20101;-89
2023/03/21 07:28:26;;;;;;;8.52;6.30;;;9.10;99.90;;;;;;4933603;29;20054;-89
2023/03/21 07:30:55;;;;;;;8.02;6.60;;;9.10;99.90;;;;;;4938752;29;20474;-89
2023/03/21 07:33:22;;;;;;;5.90;5.25;;;9.00;99.90;;;;;;4952739;28;20035;-89
2023/03/21 07:35:48;;;;;;;6.78;6.07;;;9.20;99.90;;;;;;4952783;28;20030;-89
2023/03/21 07:38:15;;;;;;;8.73;6.50;;;9.30;99.90;;;;;;4951370;28;20043;-89
2023/03/21 07:40:41;;;;;;;9.02;6.50;;;9.50;99.90;;;;;;4951648;29;20039;-90
2023/03/21 07:43:07;;;;;;;6.72;6.03;;;9.60;99.90;;;;;;4951693;28;20040;-90
2023/03/21 07:45:32;;;;;;;9.52;6.68;;;9.70;99.90;;;;;;4952230;28;20036;-90
2023/03/21 07:47:58;;;;;;;7.28;5.72;;;9.70;99.90;;;;;;4952381;28;20054;-90
2023/03/21 07:50:24;;;;;;;8.55;6.40;;;9.80;99.90;;;;;;4951962;28;20035;-88
2023/03/21 07:52:50;;;;;;;9.20;6.85;;;9.70;99.90;;;;;;4954985;28;20118;-89
2023/03/21 07:55:16;;;;;;;9.27;6.43;;;9.70;99.90;;;;;;4951532;28;20581;-89
2023/03/21 07:57:42;;;;;;;7.75;6.75;;;9.80;99.90;;;;;;4951826;28;20027;-89
2023/03/21 08:00:09;;;;;;;12.13;7.22;;;9.90;99.90;;;;;;4950522;29;20051;-89
2023/03/21 08:02:35;;;;;;;7.25;6.55;;;10.00;99.90;;;;;;4951926;28;20516;-90
2023/03/21 08:05:02;;;;;;;8.15;6.72;;;10.20;99.90;;;;;;4952532;29;20051;-90
2023/03/21 08:07:29;;;;;;;7.22;5.78;;;10.40;99.90;;;;;;4949938;29;20054;-89
2023/03/21 08:09:55;;;;;;;9.38;6.70;;;10.40;99.90;;;;;;4951316;28;20034;-89
2023/03/21 08:12:21;;;;;;;8.65;5.50;;;10.50;99.90;;;;;;4951498;28;20405;-89
2023/03/21 08:14:46;;;;;;;6.88;5.15;;;10.80;99.90;;;;;;4934452;28;20032;-87
2023/03/21 08:17:12;;;;;;;8.40;5.57;;;10.90;99.90;;;;;;4932459;28;20120;-88
2023/03/21 08:19:38;;;;;;;6.90;5.57;;;10.90;99.90;;;;;;4932628;29;20054;-89
2023/03/21 08:22:05;;;;;;;8.38;5.97;;;11.10;99.90;;;;;;4932589;29;20059;-89
2023/03/21 08:24:32;;;;;;;8.25;6.20;;;11.10;99.90;;;;;;4932307;29;20043;-88
2023/03/21 08:26:59;;;;;;;7.68;5.88;;;11.20;99.90;;;;;;4912938;29;20527;-88
2023/03/21 08:29:25;;;;;;;7.13;5.90;;;11.40;99.90;;;;;;4914043;29;20032;-88
2023/03/21 08:31:51;;;;;;;8.18;6.00;;;11.50;99.90;;;;;;4912264;29;20032;-89
2023/03/21 08:34:18;;;;;;;6.40;5.80;;;11.50;99.90;;;;;;4913296;29;20032;-88
2023/03/21 08:36:44;;;;;;;7.22;6.15;;;11.50;99.90;;;;;;4913575;29;20032;-88
2023/03/21 08:39:10;;;;;;;7.95;6.20;;;11.70;99.90;;;;;;4913132;29;20035;-89
2023/03/21 08:41:37;;;;;;;8.13;5.72;;;11.90;99.90;;;;;;4913436;29;20035;-90
2023/03/21 08:44:04;;;;;;;6.90;5.50;;;12.20;99.90;;;;;;4913463;29;20044;-89
2023/03/21 08:46:31;;;;;;;5.68;5.13;;;12.30;99.90;;;;;;4913295;29;20091;-88
2023/03/21 08:48:57;;;;;;;7.35;5.07;;;12.30;99.90;;;;;;4907384;28;20064;-89
2023/03/21 08:51:22;;;;;;;6.43;4.80;;;12.40;99.90;;;;;;4912055;29;20574;-88
2023/03/21 08:53:50;;;;;;;6.43;5.50;;;12.60;99.90;;;;;;4913192;28;20032;-90
2023/03/21 08:56:16;;;;;;;5.97;5.38;;;12.80;99.90;;;;;;4913211;29;20493;-90
2023/03/21 08:58:43;;;;;;;7.22;5.40;;;12.80;99.90;;;;;;4913212;29;20024;-90
2023/03/21 09:01:10;;;;;;;11.77;5.70;;;13.10;99.90;;;;;;4912743;29;20036;-90
2023/03/21 09:03:37;;;;;;;7.05;5.80;;;13.20;99.90;;;;;;4913131;29;20024;-90
2023/03/21 09:06:03;;;;;;;6.78;5.22;;;13.20;99.90;;;;;;4913146;29;20442;-89
2023/03/21 09:08:29;;;;;;;6.55;5.93;;;13.40;99.90;;;;;;4913092;29;20130;-90
2023/03/21 09:10:55;;;;;;;6.72;5.70;;;13.80;99.90;;;;;;4913099;29;20044;-89
2023/03/21 09:13:21;;;;;;;6.63;5.82;;;13.80;99.90;;;;;;4913289;29;20043;-90
2023/03/21 09:15:47;;;;;;;7.10;5.60;;;14.10;99.90;;;;;;4913223;29;20024;-89
2023/03/21 09:18:15;;;;;;;6.57;5.63;;;14.20;99.90;;;;;;4913067;29;20090;-90
2023/03/21 09:20:45;;;;;;;8.05;5.82;;;14.90;99.90;;;;;;4912565;29;20549;-89
2023/03/21 09:23:13;;;;;;;7.20;6.25;;;15.70;99.90;;;;;;4913339;29;20036;-89
2023/03/21 09:25:40;;;;;;;7.25;6.38;;;16.40;99.90;;;;;;4921083;29;20533;-89
2023/03/21 09:28:06;;;;;;;7.53;5.90;;;16.80;99.90;;;;;;4931795;29;20036;-90
2023/03/21 09:30:33;;;;;;;7.43;5.82;;;16.80;99.90;;;;;;4931688;29;20115;-89
2023/03/21 09:33:00;;;;;;;6.15;5.50;;;18.00;99.90;;;;;;4931804;29;20063;-90
2023/03/21 09:35:27;;;;;;;5.57;5.07;;;18.10;99.90;;;;;;4931442;29;20034;-90
2023/03/21 09:37:55;;;;;;;6.38;5.78;;;18.80;99.90;;;;;;4932012;29;20070;-89
2023/03/21 09:40:48;;;;;;;8.50;5.63;;;19.40;99.90;;;;;;4932024;29;20077;-90
2023/03/21 09:43:21;;;;;;;5.80;5.20;;;20.70;99.90;;;;;;4931612;29;20035;-89
2023/03/21 09:45:53;;;;;;;6.90;5.32;;;21.80;99.90;;;;;;4944649;29;20473;-90
2023/03/21 09:48:39;;;;;;;6.45;5.05;;;22.20;99.90;;;;;;4950774;28;20082;-90
2023/03/21 09:51:14;;;;;;;6.78;5.32;;;21.50;99.90;;;;;;4950271;28;20031;-90
2023/03/21 09:53:41;;;;;;;7.15;6.20;;;22.40;99.90;;;;;;4950526;28;20074;-90
2023/03/21 09:56:11;;;;;;;6.38;5.13;;;22.00;99.90;;;;;;4951122;28;20045;-90
2023/03/21 09:58:42;;;;;;;6.20;5.60;;;22.20;99.90;;;;;;4950601;28;20023;-90
2023/03/21 10:01:09;;;;;;;6.50;5.40;;;22.20;99.90;;;;;;4950491;28;20473;-90
2023/03/21 10:03:35;;;;;;;5.97;5.47;;;21.20;99.90;;;;;;4950362;28;20031;-90
2023/03/21 10:06:12;;;;;;;6.38;5.63;;;20.50;99.90;;;;;;4950209;28;20543;-90
2023/03/21 10:08:43;;;;;;;5.93;5.32;;;21.30;99.90;;;;;;4950754;28;20039;-90
2023/03/21 10:11:18;;;;;;;5.88;5.13;;;21.50;99.90;;;;;;4950441;28;20034;-90
2023/03/21 10:13:52;;;;;;;5.65;5.15;;;21.30;99.90;;;;;;4952409;28;20126;-90
2023/03/21 10:16:42;;;;;;;7.32;5.18;;;21.60;99.90;;;;;;4953764;28;20027;-91
2023/03/21 10:19:11;;;;;;;5.63;5.13;;;22.10;99.90;;;;;;4953486;28;20034;-91
2023/03/21 10:21:44;;;;;;;7.35;5.13;;;22.60;99.90;;;;;;4953433;28;20110;-90
2023/03/21 10:24:14;;;;;;;6.35;5.75;;;22.60;99.90;;;;;;4954104;28;20027;-91
2023/03/21 10:26:41;;;;;;;5.93;5.40;;;22.50;99.90;;;;;;4939904;28;20521;-90
2023/03/21 10:29:11;;;;;;;5.70;5.20;;;22.70;99.90;;;;;;4934375;29;20039;-90
2023/03/21 10:31:39;;;;;;;6.85;5.07;;;23.40;99.90;;;;;;4934293;29;20024;-91
2023/03/21 10:34:17;;;;;;;5.30;4.80;;;23.50;99.90;;;;;;4934083;29;20524;-91
2023/03/21 10:36:44;;;;;;;5.60;5.10;;;23.80;99.90;;;;;;4934330;29;20028;-91
2023/03/21 10:39:32;;;;;;;5.93;5.35;;;23.70;99.90;;;;;;4934137;29;20032;-91
2023/03/21 10:41:57;;;;;;;5.25;4.75;;;24.40;99.90;;;;;;4934586;29;20066;-90
2023/03/21 10:44:30;;;;;;;5.53;5.13;;;24.30;99.90;;;;;;4936091;29;20063;-91
2023/03/21 10:47:01;;;;;;;6.13;4.75;;;24.40;99.90;;;;;;4953434;28;20413;-91
2023/03/21 10:49:30;;;;;;;5.30;4.80;;;24.80;99.90;;;;;;4952942;28;20115;-91
2023/03/21 10:52:03;;;;;;;7.45;5.32;;;25.20;99.90;;;;;;4953108;28;20114;-91
2023/03/21 10:54:31;;;;;;;5.47;4.97;;;25.00;99.90;;;;;;4953220;28;20497;-91
2023/03/21 10:57:16;;;;;;;5.97;5.38;;;25.70;99.90;;;;;;4953519;28;20401;-91
2023/03/21 10:59:48;;;;;;;5.90;5.38;;;26.30;99.90;;;;;;4953377;28;20031;-91
2023/03/21 11:02:24;;;;;;;5.80;5.30;;;26.20;99.90;;;;;;4952488;29;20405;-91
2023/03/21 11:04:52;;;;;;;6.85;4.80;;;26.10;99.90;;;;;;4953036;28;20046;-92
2023/03/21 11:07:19;;;;;;;5.60;5.10;;;26.10;99.90;;;;;;4953097;28;20028;-90
2023/03/21 11:09:49;;;;;;;7.00;4.82;;;26.00;99.90;;;;;;4952905;28;20027;-91
2023/03/21 11:12:17;;;;;;;5.90;5.30;;;25.80;99.90;;;;;;4952844;28;20496;-91
2023/03/21 11:14:49;;;;;;;5.65;4.57;;;25.30;99.90;;;;;;4952867;28;20035;-91
2023/03/21 11:17:33;;;;;;;5.18;4.75;;;25.60;99.90;;;;;;4952501;28;20019;-91
2023/03/21 11:20:04;;;;;;;5.25;4.85;;;26.60;99.90;;;;;;4951493;29;20038;-92
2023/03/21 11:22:41;;;;;;;4.80;4.30;;;26.50;99.90;;;;;;4953149;28;20399;-92
2023/03/21 11:25:14;;;;;;;5.75;4.28;;;26.10;99.90;;;;;;4951676;28;20055;-91
2023/03/21 11:27:48;;;;;;;4.35;3.95;;;25.80;99.90;;;;;;4933436;29;20048;-92
2023/03/21 11:30:21;;;;;;;4.35;3.95;;;26.60;99.90;;;;;;4933360;29;20039;-92
2023/03/21 11:32:55;;;;;;;3.95;3.65;;;26.10;99.90;;;;;;4933273;29;20093;-91
2023/03/21 11:35:27;;;;;;;4.80;3.83;;;26.20;99.90;;;;;;4933647;29;20027;-92
2023/03/21 11:37:55;;;;;;;4.20;3.80;;;26.80;99.90;;;;;;4933740;29;20027;-92
2023/03/21 11:40:22;;;;;;;4.03;3.40;;;26.50;99.90;;;;;;4933606;29;20038;-91
2023/03/21 11:42:50;;;;;;;3.75;2.90;;;26.50;99.90;;;;;;4933602;29;20497;-92
2023/03/21 11:45:27;;;;;;;3.65;3.35;;;26.60;99.90;;;;;;4941739;29;20031;-91
2023/03/21 11:47:56;;;;;;;3.60;3.30;;;25.50;99.90;;;;;;4952526;28;20513;-92
2023/03/21 11:50:40;;;;;;;4.13;3.72;;;25.60;99.90;;;;;;4952062;28;20031;-91
2023/03/21 11:53:19;;;;;;;2.63;2.42;;;26.20;99.90;;;;;;4952858;28;20031;-92
2023/03/21 11:56:04;;;;;;;3.50;3.20;;;26.50;99.90;;;;;;4952230;28;20035;-92
2023/03/21 11:59:00;;;;;;;3.05;2.85;;;26.40;99.90;;;;;;4952592;28;20386;-91
2023/03/21 12:01:52;;;;;;;3.42;3.13;;;26.80;99.90;;;;;;4949398;28;20122;-91
2023/03/21 12:04:39;;;;;;;3.33;3.00;;;26.20;99.90;;;;;;4949974;29;20053;-92
2023/03/21 12:07:13;;;;;;;3.33;2.92;;;26.20;99.90;;;;;;4949821;29;20124;-92
2023/03/21 12:09:49;;;;;;;3.63;2.00;;;26.80;99.90;;;;;;4949683;29;20119;-92
2023/03/21 12:12:21;;;;;;;2.05;1.85;;;27.50;99.90;;;;;;4949714;29;20618;-92
2023/03/21 12:14:53;;;;;;;2.10;1.90;;;26.70;99.90;;;;;;4949460;29;20107;-92
2023/03/21 12:17:27;;;;;;;2.88;1.95;;;26.00;99.90;;;;;;4949699;28;20034;-92
2023/03/21 12:20:24;;;;;;;2.00;1.60;;;26.10;99.90;;;;;;4950093;29;20071;-92
2023/03/21 12:22:58;;;;;;;1.88;1.70;;;26.50;99.90;;;;;;4949717;29;20489;-92
2023/03/21 12:25:55;;;;;;;2.22;1.90;;;26.60;99.90;;;;;;4949388;29;20513;-91
2023/03/21 12:28:38;;;;;;;5.50;2.70;;;26.00;99.90;;;;;;4949762;28;20051;-91
2023/03/21 12:31:32;;;;;;;3.35;3.05;;;26.90;99.90;;;;;;4949337;29;20109;-92
2023/03/21 12:34:30;;;;;;;3.20;2.90;;;27.50;99.90;;;;;;4949905;28;20081;-92
2023/03/21 12:37:16;;;;;;;2.88;2.60;;;28.10;99.90;;;;;;4949088;29;20094;-93
2023/03/21 12:39:45;;;;;;;2.72;2.53;;;27.10;99.90;;;;;;4951484;28;20037;-92
2023/03/21 12:42:44;;;;;;;2.45;2.25;;;26.80;99.90;;;;;;4951965;28;20134;-92
2023/03/21 12:45:41;;;;;;;2.38;2.17;;;26.70;99.90;;;;;;4951425;28;20023;-91
2023/03/21 12:48:21;;;;;;;2.20;2.00;;;27.10;99.90;;;;;;4951015;28;20397;-91
2023/03/21 12:50:50;;;;;;;2.97;2.50;;;27.00;99.90;;;;;;4951678;28;20054;-92
2023/03/21 12:53:29;;;;;;;2.67;2.35;;;27.00;99.90;;;;;;4951770;28;20504;-91
2023/03/21 12:56:00;;;;;;;2.65;1.92;;;26.50;99.90;;;;;;4951379;28;20032;-92
2023/03/21 12:58:28;;;;;;;2.42;2.22;;;26.60;99.90;;;;;;4951312;28;20381;-92
2023/03/21 13:00:56;;;;;;;2.95;2.25;;;25.80;99.90;;;;;;4951315;28;20073;-92
2023/03/21 13:04:00;;;;;;;2.60;2.05;;;25.50;99.90;;;;;;4951396;28;20026;-92
2023/03/21 13:06:27;;;;;;;2.88;2.22;;;25.80;99.90;;;;;;4949009;29;20043;-92
2023/03/21 13:09:04;;;;;;;2.47;2.05;;;26.10;99.90;;;;;;4948777;29;20047;-92